createdAt,value
2023-03-29T00:01:35.933Z,101209.31
2023-03-29T00:06:38.069Z,101209.44
2023-03-29T00:11:39.974Z,101194.50
2023-03-29T00:16:41.552Z,101183.88
2023-03-29T00:21:43.167Z,101184.72
2023-03-29T00:26:44.660Z,101167.72
2023-03-29T00:31:46.352Z,101168.69
2023-03-29T00:36:48.039Z,101165.53
2023-03-29T00:41:50.571Z,101164.13
2023-03-29T00:46:52.463Z,101150.41
2023-03-29T00:51:54.114Z,101151.25
2023-03-29T00:56:55.729Z,101151.63
2023-03-29T01:02:06.526Z,101130.78
2023-03-29T01:07:17.170Z,101122.69
2023-03-29T01:12:45.684Z,101115.31
2023-03-29T01:17:48.259Z,101120.88
2023-03-29T01:22:58.753Z,101111.91
2023-03-29T01:28:14.692Z,101111.53
2023-03-29T01:33:25.508Z,101099.09
2023-03-29T01:38:46.101Z,101091.13
2023-03-29T01:43:56.686Z,101089.72
2023-03-29T01:49:00.759Z,101087.78
2023-03-29T01:54:08.222Z,101087.84
2023-03-29T01:59:15.673Z,101088.97
2023-03-29T02:04:26.021Z,101077.06
2023-03-29T02:09:29.680Z,101080.09
2023-03-29T02:14:31.258Z,101069.69
2023-03-29T02:19:33.170Z,101066.75
2023-03-29T02:24:37.321Z,101049.13
2023-03-29T02:29:39.360Z,101050.31
2023-03-29T02:35:22.051Z,101051.34
2023-03-29T02:40:24.750Z,101047.47
2023-03-29T02:45:28.182Z,101041.00
2023-03-29T02:50:36.816Z,101039.25
2023-03-29T02:55:39.115Z,101032.25
2023-03-29T03:00:45.280Z,101036.72
2023-03-29T03:05:47.243Z,101034.69
2023-03-29T03:10:49.124Z,101035.88
2023-03-29T03:15:50.920Z,101032.47
2023-03-29T03:21:00.335Z,101028.16
2023-03-29T03:26:02.401Z,101032.59
2023-03-29T03:31:06.269Z,101019.66
2023-03-29T03:36:27.781Z,101014.00
2023-03-29T03:41:31.834Z,101024.84
2023-03-29T03:46:33.547Z,101022.38
2023-03-29T03:51:35.412Z,101019.16
2023-03-29T03:56:37.972Z,101014.25
2023-03-29T04:01:48.258Z,101012.47
2023-03-29T04:06:59.337Z,101001.94
2023-03-29T04:12:06.333Z,100992.84
2023-03-29T04:17:08.560Z,100993.19
2023-03-29T04:22:39.958Z,100992.31
2023-03-29T04:27:42.511Z,100997.00
2023-03-29T04:32:53.702Z,101000.13
2023-03-29T04:37:56.070Z,100999.97
2023-03-29T04:42:59.166Z,100995.56
2023-03-29T04:48:01.336Z,101002.38
2023-03-29T04:53:03.082Z,100991.00
2023-03-29T04:58:05.414Z,100974.72
2023-03-29T05:03:09.293Z,100973.91
2023-03-29T05:08:14.826Z,100976.84
2023-03-29T05:13:39.714Z,100965.28
2023-03-29T05:18:41.866Z,100984.06
2023-03-29T05:23:45.091Z,100977.19
2023-03-29T05:29:22.546Z,100972.81
2023-03-29T05:34:32.122Z,100977.84
2023-03-29T05:39:37.725Z,100977.06
2023-03-29T05:44:40.438Z,100966.81
2023-03-29T05:49:50.331Z,100960.91
2023-03-29T05:54:57.019Z,100963.38
2023-03-29T05:59:58.853Z,100955.72
2023-03-29T06:05:00.771Z,100958.50
2023-03-29T06:10:13.217Z,100956.38
2023-03-29T06:15:19.021Z,100962.44
2023-03-29T06:20:26.922Z,100956.72
2023-03-29T06:25:35.012Z,100963.56
2023-03-29T06:30:37.053Z,100974.19
2023-03-29T06:35:42.604Z,100973.38
2023-03-29T06:40:49.138Z,100975.84
2023-03-29T06:45:53.994Z,100980.38
2023-03-29T06:51:06.575Z,100988.38
2023-03-29T06:56:08.840Z,100987.03
2023-03-29T07:01:19.590Z,100984.81
2023-03-29T07:06:29.457Z,100988.28
2023-03-29T07:11:33.727Z,100986.25
2023-03-29T07:16:43.436Z,100981.94
2023-03-29T07:22:02.604Z,100984.75
2023-03-29T07:27:14.329Z,100979.38
2023-03-29T07:32:16.348Z,100988.16
2023-03-29T07:37:18.072Z,100996.09
2023-03-29T07:42:21.298Z,101003.69
2023-03-29T07:47:23.639Z,101000.06
2023-03-29T07:52:25.803Z,100984.44
2023-03-29T07:57:27.666Z,101000.47
2023-03-29T08:02:31.840Z,100999.22
2023-03-29T08:07:37.128Z,101001.78
2023-03-29T08:12:39.033Z,101000.56
2023-03-29T08:17:41.515Z,100998.53
2023-03-29T08:22:43.920Z,100994.75
2023-03-29T08:28:03.020Z,100995.13
2023-03-29T08:33:19.296Z,100997.78
2023-03-29T08:38:27.326Z,100992.41
2023-03-29T08:43:59.391Z,100984.84
2023-03-29T08:49:11.844Z,100994.59
2023-03-29T08:54:16.358Z,100998.06
2023-03-29T08:59:40.449Z,100995.59
2023-03-29T09:04:45.192Z,100991.09
2023-03-29T09:10:15.767Z,100991.84
2023-03-29T09:15:24.072Z,100989.84
2023-03-29T09:20:47.818Z,100996.91
2023-03-29T09:26:09.451Z,100995.44
2023-03-29T09:31:37.075Z,100985.59
2023-03-29T09:36:54.035Z,100985.78
2023-03-29T09:42:18.180Z,100988.59
2023-03-29T09:47:26.837Z,100989.56
2023-03-29T09:52:29.746Z,100985.19
2023-03-29T09:57:41.089Z,100989.31
2023-03-29T10:02:53.967Z,100973.84
2023-03-29T10:08:07.234Z,100974.09
2023-03-29T10:13:36.272Z,100967.63
2023-03-29T10:18:43.296Z,100967.75
2023-03-29T10:23:45.025Z,100966.13
2023-03-29T10:28:48.313Z,100962.75
2023-03-29T10:33:57.023Z,100960.09
2023-03-29T10:39:05.584Z,100944.91
2023-03-29T10:44:26.104Z,100947.09
2023-03-29T10:49:27.796Z,100946.78
2023-03-29T10:54:29.928Z,100949.88
2023-03-29T10:59:55.415Z,100947.81
2023-03-29T11:05:17.009Z,100942.84
2023-03-29T11:10:52.153Z,100923.66
2023-03-29T11:16:09.873Z,100919.09
2023-03-29T11:21:33.511Z,100946.72
2023-03-29T11:26:57.065Z,100937.75
2023-03-29T11:32:08.852Z,100911.59
2023-03-29T11:37:19.194Z,100919.97
2023-03-29T11:42:24.898Z,100913.00
2023-03-29T11:47:32.877Z,100903.31
2023-03-29T11:52:43.393Z,100894.47
2023-03-29T11:57:54.734Z,100886.03
2023-03-29T12:03:33.832Z,100887.63
2023-03-29T12:08:41.604Z,100893.25
2023-03-29T12:14:09.125Z,100905.38
2023-03-29T12:19:48.160Z,100884.53
2023-03-29T12:24:53.717Z,100886.28
2023-03-29T12:30:19.040Z,100869.06
2023-03-29T12:35:54.631Z,100859.94
2023-03-29T12:41:28.462Z,100851.16
2023-03-29T12:46:54.580Z,100855.00
2023-03-29T12:51:59.244Z,100846.88
2023-03-29T12:57:18.407Z,100846.31
2023-03-29T13:02:23.465Z,100847.09
2023-03-29T13:07:25.368Z,100833.41
2023-03-29T13:12:40.490Z,100834.53
2023-03-29T13:17:44.320Z,100840.81
2023-03-29T13:23:03.171Z,100823.69
2023-03-29T13:28:24.403Z,100831.31
2023-03-29T13:33:45.033Z,100813.97
2023-03-29T13:38:53.385Z,100809.03
2023-03-29T13:43:57.067Z,100814.06
2023-03-29T13:49:05.075Z,100804.75
2023-03-29T13:54:27.334Z,100799.94
2023-03-29T13:59:40.275Z,100776.63
2023-03-29T14:04:46.608Z,100766.81
2023-03-29T14:09:50.612Z,100759.34
2023-03-29T14:14:59.125Z,100759.06
2023-03-29T14:20:06.565Z,100753.72
2023-03-29T14:25:20.167Z,100737.69
2023-03-29T14:30:27.120Z,100729.03
2023-03-29T14:35:34.598Z,100717.28
2023-03-29T14:40:36.532Z,100724.72
2023-03-29T14:45:38.549Z,100727.13
2023-03-29T14:50:41.611Z,100717.25
2023-03-29T14:55:45.774Z,100708.50
2023-03-29T15:00:52.373Z,100711.00
2023-03-29T15:06:03.292Z,100705.31
2023-03-29T15:11:26.883Z,100693.69
2023-03-29T15:16:30.358Z,100690.00
2023-03-29T15:21:35.205Z,100677.72
2023-03-29T15:26:38.351Z,100674.66
2023-03-29T15:31:41.422Z,100671.22
2023-03-29T15:36:45.681Z,100667.53
2023-03-29T15:41:50.315Z,100651.44
2023-03-29T15:46:51.993Z,100648.19
2023-03-29T15:51:54.599Z,100633.69
2023-03-29T15:57:01.690Z,100632.09
2023-03-29T16:02:04.722Z,100618.13
2023-03-29T16:07:13.056Z,100611.22
2023-03-29T16:12:14.796Z,100602.78
2023-03-29T16:17:16.608Z,100596.44
2023-03-29T16:22:18.421Z,100580.00
2023-03-29T16:27:20.405Z,100575.47
2023-03-29T16:32:22.640Z,100566.22
2023-03-29T16:37:24.434Z,100554.09
2023-03-29T16:42:26.010Z,100554.34
2023-03-29T16:47:28.116Z,100550.31
2023-03-29T16:52:29.679Z,100547.25
2023-03-29T16:57:31.638Z,100556.69
2023-03-29T17:02:33.747Z,100551.41
2023-03-29T17:07:35.941Z,100538.41
2023-03-29T17:12:38.106Z,100543.16
2023-03-29T17:17:39.693Z,100556.84
2023-03-29T17:22:41.604Z,100546.25
2023-03-29T17:27:43.397Z,100546.72
2023-03-29T17:32:45.318Z,100547.16
2023-03-29T17:37:47.274Z,100548.56
2023-03-29T17:42:49.180Z,100540.34
2023-03-29T17:47:50.884Z,100535.03
2023-03-29T17:52:52.588Z,100541.13
2023-03-29T17:57:54.411Z,100531.59
2023-03-29T18:02:56.310Z,100528.22
2023-03-29T18:07:58.100Z,100520.56
2023-03-29T18:13:00.297Z,100532.38
2023-03-29T18:18:02.008Z,100533.03
2023-03-29T18:23:04.148Z,100529.16
2023-03-29T18:28:05.919Z,100530.06
2023-03-29T18:33:07.611Z,100543.44
2023-03-29T18:38:09.293Z,100527.78
2023-03-29T18:43:10.968Z,100531.81
2023-03-29T18:48:12.543Z,100544.72
2023-03-29T18:53:14.889Z,100525.56
2023-03-29T18:58:16.462Z,100523.50
2023-03-29T19:03:18.148Z,100527.13
2023-03-29T19:08:20.056Z,100511.66
2023-03-29T19:13:21.711Z,100490.78
2023-03-29T19:18:23.267Z,100501.34
2023-03-29T19:23:26.067Z,100493.72
2023-03-29T19:28:28.177Z,100496.75
2023-03-29T19:33:31.180Z,100481.69
2023-03-29T19:38:32.782Z,100477.03
2023-03-29T19:43:35.917Z,100465.66
2023-03-29T19:48:39.400Z,100456.13
2023-03-29T19:53:41.877Z,100444.00
2023-03-29T19:58:43.936Z,100441.69
2023-03-29T20:03:46.598Z,100443.63
2023-03-29T20:08:49.546Z,100432.06
2023-03-29T20:19:09.545Z,100414.47
2023-03-29T20:24:11.682Z,100408.53
2023-03-29T20:29:13.700Z,100411.53
2023-03-29T20:34:15.429Z,100394.09
2023-03-29T20:39:17.304Z,100377.75
2023-03-29T20:44:19.119Z,100378.44
2023-03-29T20:49:20.956Z,100386.81
2023-03-29T20:54:22.663Z,100380.00
2023-03-29T20:59:25.093Z,100382.44
2023-03-29T21:04:29.602Z,100367.91
2023-03-29T21:09:31.372Z,100356.34
2023-03-29T21:14:33.269Z,100356.81
2023-03-29T21:19:37.442Z,100343.72
2023-03-29T21:24:39.606Z,100348.13
2023-03-29T21:29:41.362Z,100352.09
2023-03-29T21:34:43.018Z,100337.38
2023-03-29T21:39:44.637Z,100315.69
2023-03-29T21:44:49.536Z,100312.47
2023-03-29T21:49:51.253Z,100313.13
2023-03-29T21:54:52.864Z,100305.06
2023-03-29T21:59:54.776Z,100305.34
2023-03-29T22:04:56.394Z,100298.00
2023-03-29T22:09:58.155Z,100305.63
2023-03-29T22:15:00.352Z,100306.53
2023-03-29T22:20:02.309Z,100307.69
2023-03-29T22:25:04.143Z,100321.28
2023-03-29T22:30:06.578Z,100312.22
2023-03-29T22:35:08.755Z,100303.72
2023-03-29T22:40:11.582Z,100304.03
2023-03-29T22:45:14.271Z,100288.78
2023-03-29T22:50:16.181Z,100286.78
2023-03-29T22:55:17.731Z,100280.88
2023-03-29T23:00:19.509Z,100267.63
2023-03-29T23:05:21.108Z,100272.78
2023-03-29T23:10:23.776Z,100266.53
2023-03-29T23:15:26.269Z,100257.66
2023-03-29T23:20:29.187Z,100265.13
2023-03-29T23:25:30.792Z,100244.22
2023-03-29T23:30:34.122Z,100254.34
2023-03-29T23:35:36.607Z,100251.63
2023-03-29T23:40:38.262Z,100253.44
2023-03-29T23:45:39.817Z,100256.06
2023-03-29T23:50:43.172Z,100252.41
2023-03-29T23:55:45.004Z,100241.69
